Tikaboo Peak, Nevada Weather observations

Data are for 10 minute period ending at time listed.
 Day   Time   Solar   Ave.   Ave.  Ave.  Vector  Max.   Baro.   Total    
  of    of     Rad.   Air    Rel.  Wind   Wind   Wind  Press.  Precip.   
Year   Day            Temp.  Hum.  Speed  Dir.   Gust                    
2026   (PST)  Kw/m2    F      %     mph   deg.    mph    mb.     in.     
-------------------------------------------------------------------------
 128   11:00   1.10   72.8    11    2.4    95    12.4   765.1    0.00 
 128   11:10   1.11   73.5    11    1.4    70     7.3   765.1    0.00 
 128   11:20   1.11   73.6    11    3.4    70    10.4   765.0    0.00 
 128   11:30   1.11   73.4    12    2.4    62    12.4   765.0    0.00 
 128   11:40   1.12   73.9    11    3.5    49    10.9   764.9    0.00 
 128   11:50   1.12   74.1    11    3.0    78    11.6   764.9    0.00 
 128   12:00   1.11   73.2    11    3.2    81    11.0   764.9    0.00 
 128   12:10   1.10   74.2    11    2.4    71    10.5   764.9    0.00 
 128   12:20   1.10   74.4    10    6.6    59    17.9   764.7    0.00 
 128   12:30   1.09   74.8    10    2.9    82    13.8   764.7    0.00 
 128   12:40   1.08   74.2    10    3.1    92    12.5   764.6    0.00 
 128   12:50   1.07   73.5    11    3.8    98    13.5   764.6    0.00 
 128   13:00   1.05   74.4    11    3.8    48    15.8   764.6    0.00 
 128   13:10   1.04   74.6    10    5.7    51    18.0   764.5    0.00 
 128   13:20   1.00   73.7    11    2.6   161    13.5   764.5    0.00 
 128   13:30   1.00   74.4    11    3.6    63    14.8   764.5    0.00 
 128   13:40   0.97   75.0    10    8.1    37    19.7   764.4    0.00 
 128   13:50   0.95   74.7     9    6.7    33    17.2   764.3    0.00 
 128   14:00   0.93   73.4     9    7.8    38    22.6   764.0    0.00 
 128   14:10   0.91   73.9     9    3.5    69    15.0   764.1    0.00 
 128   14:20   0.88   74.0     9    2.4   103    11.0   764.1    0.00 
 128   14:30   0.85   73.9     9    4.5   100    18.1   764.0    0.00 
 128   14:40   0.69   73.5     9    3.3   124    17.2   763.9    0.00 
 128   14:50   0.79   73.8     8    4.8    62    17.8   763.8    0.00 
 128   15:00   0.76   74.2     8    5.8    46    20.7   763.7    0.00 
 128   15:10   0.73   73.2     8    2.5    97    12.5   763.8    0.00 
 128   15:20   0.69   73.3     8    3.5   108    11.8   763.6    0.00 
 128   15:30   0.66   73.1     7    2.8   123    14.1   763.5    0.00 
 128   15:40   0.62   73.4     7    5.6    40    18.1   763.5    0.00 
 128   15:50   0.58   73.0     7    4.9    61    15.2   763.4    0.00 
 128   16:00   0.54   72.7     7    3.4    67    14.5   763.4    0.00 
 128   16:10   0.50   72.5     7    3.8    62    14.6   763.5    0.00 
 128   16:20   0.46   72.4     6    3.5    49    15.6   763.2    0.00 
 128   16:30   0.42   71.6     7    3.9    55    17.8   763.1    0.00 
 128   16:40   0.38   71.1     6    1.9   346     8.1   763.1    0.00 
 128   16:50   0.34   70.6     6    2.6    30    14.3   763.0    0.00 
 128   17:00   0.30   69.3     6    1.6   152     9.4   763.1    0.00 
 128   17:10   0.26   67.9     6    1.4   328     6.0   763.0    0.00 
 128   17:20   0.22   67.4     7    1.6   318     8.4   763.0    0.00 
 128   17:30   0.19   66.6     7    1.6    80     7.8   763.0    0.00 
 128   17:40   0.16   66.1     8    1.8   340     6.9   763.1    0.00 
 128   17:50   0.13   65.8     7    1.1   280     5.9   763.0    0.00 
 128   18:00   0.10   65.0     8    1.0   358     6.4   763.1    0.00 
 128   18:10   0.07   64.5     8    1.6   188     8.0   763.1    0.00 
 128   18:20   0.05   64.1     8    1.3   169     4.7   763.2    0.00 
 128   18:30   0.03   63.6     9    1.6   166     7.7   763.2    0.00 
 128   18:40   0.02   63.3     9    1.6   159     4.7   763.3    0.00 
 128   18:50   0.01   63.1     9    2.5   128    15.6   763.2    0.00 
 128   19:00   0.00   62.9     9    2.1   144     6.5   763.3    0.00 
 128   19:10   0.00   62.7     9    2.2   128     7.5   763.4    0.00 
 128   19:20   0.00   62.4     9    1.9   128     9.5   763.5    0.00 
 128   19:30   0.00   62.1     9    3.4    70    21.2   763.6    0.00 
 128   19:40   0.00   61.9     9    5.1    69    18.5   763.6    0.00 
 128   19:50   0.00   61.7     9    3.3    46    13.5   763.7    0.00 
 128   20:00   0.00   61.7     9    4.9    68    18.3   763.7    0.00 
 128   20:10   0.00   61.4     9    6.0    75    18.5   763.7    0.00 
 128   20:20   0.00   61.7     9    5.1    44    17.8   763.8    0.00 
 128   20:30   0.00   61.7     9    4.0    79    14.8   763.8    0.00 
 128   20:40   0.00   61.6     9    4.1    90    16.0   763.9    0.00 
 128   20:50   0.00   61.5     9    2.1    86    10.2   763.9    0.00 
 128   21:00   0.00   61.1     9    2.2    73    12.9   763.9    0.00 
 128   21:10   0.00   60.9    10    3.6    81    16.4   764.0    0.00 
 128   21:20   0.00   60.6    10    1.6   105     6.7   764.1    0.00 
 128   21:30   0.00   60.8    10    2.5    92    10.6   764.1    0.00 
 128   21:40   0.00   60.9    10    1.9   115     6.7   764.1    0.00 
 128   21:50   0.00   60.9    10    1.8    99    11.7   764.1    0.00 
 128   22:00   0.00   60.8    10    3.7    78    15.2   764.0    0.00 
 128   22:10   0.00   60.6    10    4.3    60    16.4   763.9    0.00 
 128   22:20   0.00   60.5    10    5.9    65    21.0   763.9    0.00 
 128   22:30   0.00   60.4    10    3.7    51    14.6   763.9    0.00 
 128   22:40   0.00   60.5    10    3.5    69    13.8   764.0    0.00 
 128   22:50   0.00   60.2    10    5.0    69    17.3   764.0    0.00 
 128   23:00   0.00   60.0    10    3.4    56    16.8   763.9    0.00 
 128   23:10   0.00   59.8     9    7.2    59    19.1   763.9    0.00 
 128   23:20   0.00   59.2    11    7.6    60    20.8   763.9    0.00 
 128   23:30   0.00   59.1    12    4.4    54    12.9   764.0    0.00 
 128   23:40   0.00   58.9    11    4.7    69    13.8   764.0    0.00 
 128   23:50   0.00   58.5    12   11.1    80    17.6   763.9    0.00 
 129    0:00   0.00   58.6    13   12.5    88    22.7   763.9    0.00 
 129    0:10   0.00   60.1    14   20.6   114    28.9   763.8    0.00 
 129    0:20   0.00   60.7    14   22.2   116    30.1   763.8    0.00 
 129    0:30   0.00   60.1    15   23.9   126    26.9   763.8    0.00 
 129    0:40   0.00   59.8    15   23.6   133    28.9   763.7    0.00 
 129    0:50   0.00   59.5    16   23.7   137    30.2   763.7    0.00 
 129    1:00   0.00   59.3    17   23.5   134    27.8   763.7    0.00 
 129    1:10   0.00   59.2    17   23.6   136    28.4   763.6    0.00 
 129    1:20   0.00   58.7    17   23.9   146    28.5   763.6    0.00 
 129    1:30   0.00   58.4    18   24.9   148    32.4   763.6    0.00 
 129    1:40   0.00   58.0    19   24.8   150    30.5   763.6    0.00 
 129    1:50   0.00   57.8    19   25.0   151    31.2   763.6    0.00 
 129    2:00   0.00   57.5    20   23.6   153    29.0   763.6    0.00 
 129    2:10   0.00   57.4    20   24.3   152    29.7   763.6    0.00 
 129    2:20   0.00   57.1    20   24.9   154    31.2   763.5    0.00 
 129    2:30   0.00   57.2    20   24.5   152    29.2   763.6    0.00 
 129    2:40   0.00   57.1    21   25.4   152    31.4   763.7    0.00 
 129    2:50   0.00   56.9    21   22.7   152    29.1   763.7    0.00 
 129    3:00   0.00   56.8    21   22.8   150    27.8   763.6    0.00 
 129    3:10   0.00   56.6    21   24.6   146    30.5   763.6    0.00 
 129    3:20   0.00   56.8    21   24.3   148    28.7   763.7    0.00 
 129    3:30   0.00   56.6    21   22.0   150    27.3   763.7    0.00 
 129    3:40   0.00   56.6    21   21.2   150    26.8   763.7    0.00 
 129    3:50   0.00   56.5    21   23.1   148    29.0   766.8    0.00 
 129    4:00   0.00   56.3    21   23.1   150    28.3   763.6    0.00 
 129    4:10   0.00   56.1    21   23.2   151    27.0   763.6    0.00 
 129    4:20   0.00   55.8    21   21.5   149    26.0   763.7    0.00 
 129    4:30   0.00   55.6    21   21.5   149    26.5   763.7    0.00 
 129    4:40   0.00   55.4    21   21.6   150    26.0   763.8    0.00 
 129    4:50   0.01   55.4    21   20.4   148    23.5   763.9    0.00 
 129    5:00   0.03   55.4    21   21.0   151    24.5   763.9    0.00 
 129    5:10   0.05   55.7    21   19.3   151    26.6   764.0    0.00 
 129    5:20   0.08   56.3    21   18.0   154    22.5   764.1    0.00 
 129    5:30   0.10   56.6    21   17.4   155    20.6   764.2    0.00 
 129    5:40   0.14   57.2    21   16.7   161    20.6   764.2    0.00 
 129    5:50   0.17   58.1    21   17.5   161    21.3   764.3    0.00 
 129    6:00   0.20   58.3    21   16.2   155    20.0   764.4    0.00 
 129    6:10   0.24   58.5    21   15.8   158    20.2   764.5    0.00 
 129    6:20   0.28   58.7    21   16.0   160    20.1   764.6    0.00 
 129    6:30   0.32   58.9    21   14.4   162    18.8   764.6    0.00 
 129    6:40   0.36   60.0    20   13.9   165    20.2   764.7    0.00 
 129    6:50   0.40   60.4    20   14.8   163    22.1   764.7    0.00 
 129    7:00   0.44   60.8    20   14.0   166    18.9   764.7    0.00 
 129    7:10   0.48   61.2    20   13.5   161    18.8   764.7    0.00 
 129    7:20   0.52   60.9    20   15.3   161    19.7   764.7    0.00 
 129    7:30   0.55   60.7    20   16.0   164    22.4   764.7    0.00 
 129    7:40   0.59   61.0    20   16.1   160    21.7   764.9    0.00 
 129    7:50   0.63   61.3    20   15.6   160    21.8   764.8    0.00 
 129    8:00   0.66   61.1    20   14.6   159    21.0   764.9    0.00 
 129    8:10   0.70   60.8    20   16.2   158    22.4   764.7    0.00 
 129    8:20   0.73   60.6    20   16.7   156    25.9   764.7    0.00 
 129    8:30   0.76   60.6    20   16.7   161    24.5   764.8    0.00 
 129    8:40   0.80   61.2    20   14.8   160    21.6   764.8    0.00 
 129    8:50   0.83   62.0    20   14.1   158    22.0   764.9    0.00 
 129    9:00   0.85   62.4    20   14.8   159    22.1   765.1    0.00 
 129    9:10   0.88   62.3    20   16.1   159    23.3   765.0    0.00 
 129    9:20   0.91   62.3    20   15.7   157    24.5   765.2    0.00 
 129    9:30   0.93   63.1    19   13.6   158    21.4   765.3    0.00 
 129    9:40   0.96   63.8    19   12.4   159    21.7   765.3    0.00 
 129    9:50   0.98   64.4    18   10.3   160    17.8   765.2    0.00 
 129   10:00   1.00   65.5    18    8.0   155    16.0   765.3    0.00 
 129   10:10   1.02   66.2    17    8.2   158    17.5   765.2    0.00 
 129   10:20   1.04   66.7    17    5.7   141    12.1   765.1    0.00 
 129   10:30   1.05   66.6    16    6.3   133    15.0   765.1    0.00 
 129   10:40   1.06   67.7    16    3.8    80    11.8   765.1    0.00 
 129   10:50   1.08   67.4    16    4.6   121    12.6   765.1    0.00 

Return to Tikaboo Peak graphs page.


Western Regional Climate Center,wrcc@dri.edu